Terminal Aerodrome Forecast
Issued by NWS

Home | Current Version | Previous Version | Text Only | Print | Product List | Glossary On
Versions: 1 2 3 4 5 6 7 8 9 10 11 12 13 14 15 16 17 18 19 20 21 22 23 24 25
808
FTUS43 KDTX 042324
TAFPTK
TAF
KPTK 042324Z 0500/0524 08005KT 6SM -RA SCT028 OVC045
     FM050300 02005KT P6SM BKN060 BKN150
     FM050600 01009KT P6SM BKN200
     FM051600 01014G20KT P6SM BKN045=

USA.gov is the U.S. government's official web portal to all federal, state and local government web resources and services.